sensor_id;sensor_type;location;lat;lon;timestamp;P1;durP1;ratioP1;P2;durP2;ratioP2
70920;SDS011;58572;48.110;19.838;2023-05-29T00:00:41;6.32;;;3.13;;
70920;SDS011;58572;48.110;19.838;2023-05-29T00:03:08;5.45;;;2.53;;
70920;SDS011;58572;48.110;19.838;2023-05-29T00:08:02;8.55;;;3.00;;
70920;SDS011;58572;48.110;19.838;2023-05-29T00:10:30;7.95;;;2.58;;
70920;SDS011;58572;48.110;19.838;2023-05-29T00:12:58;6.53;;;2.92;;
70920;SDS011;58572;48.110;19.838;2023-05-29T00:15:27;8.40;;;2.42;;
70920;SDS011;58572;48.110;19.838;2023-05-29T00:17:55;7.43;;;3.08;;
70920;SDS011;58572;48.110;19.838;2023-05-29T00:20:22;5.50;;;2.13;;
70920;SDS011;58572;48.110;19.838;2023-05-29T00:22:49;7.28;;;3.03;;
70920;SDS011;58572;48.110;19.838;2023-05-29T00:25:16;5.75;;;2.90;;
70920;SDS011;58572;48.110;19.838;2023-05-29T00:27:44;8.13;;;2.72;;
70920;SDS011;58572;48.110;19.838;2023-05-29T00:30:11;6.22;;;2.30;;
70920;SDS011;58572;48.110;19.838;2023-05-29T00:32:40;6.22;;;2.75;;
70920;SDS011;58572;48.110;19.838;2023-05-29T00:35:07;6.35;;;2.88;;
70920;SDS011;58572;48.110;19.838;2023-05-29T00:37:35;4.57;;;2.35;;
70920;SDS011;58572;48.110;19.838;2023-05-29T00:40:02;7.88;;;2.53;;
70920;SDS011;58572;48.110;19.838;2023-05-29T00:42:30;6.35;;;2.55;;
70920;SDS011;58572;48.110;19.838;2023-05-29T00:44:57;5.30;;;2.97;;
70920;SDS011;58572;48.110;19.838;2023-05-29T00:47:24;6.18;;;2.53;;
70920;SDS011;58572;48.110;19.838;2023-05-29T00:49:54;5.15;;;2.33;;
70920;SDS011;58572;48.110;19.838;2023-05-29T00:52:22;4.10;;;2.20;;
70920;SDS011;58572;48.110;19.838;2023-05-29T00:54:50;7.40;;;2.30;;
70920;SDS011;58572;48.110;19.838;2023-05-29T00:57:18;6.03;;;2.53;;
70920;SDS011;58572;48.110;19.838;2023-05-29T00:59:46;5.30;;;2.67;;
70920;SDS011;58572;48.110;19.838;2023-05-29T01:02:14;5.57;;;2.60;;
70920;SDS011;58572;48.110;19.838;2023-05-29T01:04:43;6.57;;;2.65;;
70920;SDS011;58572;48.110;19.838;2023-05-29T01:07:13;4.95;;;2.10;;
70920;SDS011;58572;48.110;19.838;2023-05-29T01:09:40;4.50;;;2.25;;
70920;SDS011;58572;48.110;19.838;2023-05-29T01:12:10;9.90;;;2.53;;
70920;SDS011;58572;48.110;19.838;2023-05-29T01:14:49;5.97;;;2.47;;
70920;SDS011;58572;48.110;19.838;2023-05-29T01:17:31;5.68;;;2.22;;
70920;SDS011;58572;48.110;19.838;2023-05-29T01:20:09;7.38;;;2.47;;
70920;SDS011;58572;48.110;19.838;2023-05-29T01:23:02;5.53;;;2.50;;
70920;SDS011;58572;48.110;19.838;2023-05-29T01:25:38;5.20;;;2.22;;
70920;SDS011;58572;48.110;19.838;2023-05-29T01:28:27;7.70;;;2.40;;
70920;SDS011;58572;48.110;19.838;2023-05-29T01:30:58;5.50;;;2.53;;
70920;SDS011;58572;48.110;19.838;2023-05-29T01:33:28;4.78;;;2.72;;
70920;SDS011;58572;48.110;19.838;2023-05-29T01:35:55;4.03;;;2.17;;
70920;SDS011;58572;48.110;19.838;2023-05-29T01:38:22;3.88;;;2.20;;
70920;SDS011;58572;48.110;19.838;2023-05-29T01:40:49;4.93;;;2.08;;
70920;SDS011;58572;48.110;19.838;2023-05-29T01:43:17;5.10;;;2.90;;
70920;SDS011;58572;48.110;19.838;2023-05-29T01:45:46;7.32;;;2.08;;
70920;SDS011;58572;48.110;19.838;2023-05-29T01:48:13;9.05;;;2.83;;
70920;SDS011;58572;48.110;19.838;2023-05-29T01:50:41;7.32;;;2.47;;
70920;SDS011;58572;48.110;19.838;2023-05-29T01:53:10;5.90;;;2.50;;
70920;SDS011;58572;48.110;19.838;2023-05-29T01:55:37;4.95;;;2.30;;
70920;SDS011;58572;48.110;19.838;2023-05-29T01:58:04;5.40;;;2.40;;
70920;SDS011;58572;48.110;19.838;2023-05-29T02:00:33;4.45;;;2.28;;
70920;SDS011;58572;48.110;19.838;2023-05-29T02:03:02;5.32;;;2.30;;
70920;SDS011;58572;48.110;19.838;2023-05-29T02:05:29;4.93;;;2.25;;
70920;SDS011;58572;48.110;19.838;2023-05-29T02:07:57;5.57;;;2.50;;
70920;SDS011;58572;48.110;19.838;2023-05-29T02:10:25;5.60;;;2.42;;
70920;SDS011;58572;48.110;19.838;2023-05-29T02:12:52;5.70;;;2.42;;
70920;SDS011;58572;48.110;19.838;2023-05-29T02:15:19;5.57;;;2.47;;
70920;SDS011;58572;48.110;19.838;2023-05-29T02:17:47;4.43;;;2.22;;
70920;SDS011;58572;48.110;19.838;2023-05-29T02:20:16;6.10;;;2.83;;
70920;SDS011;58572;48.110;19.838;2023-05-29T02:22:43;5.82;;;2.78;;
70920;SDS011;58572;48.110;19.838;2023-05-29T02:25:10;6.88;;;2.45;;
70920;SDS011;58572;48.110;19.838;2023-05-29T02:27:38;4.90;;;2.60;;
70920;SDS011;58572;48.110;19.838;2023-05-29T02:30:05;5.97;;;2.60;;
70920;SDS011;58572;48.110;19.838;2023-05-29T02:32:33;6.65;;;2.72;;
70920;SDS011;58572;48.110;19.838;2023-05-29T02:35:00;5.20;;;2.15;;
70920;SDS011;58572;48.110;19.838;2023-05-29T02:37:29;5.38;;;2.25;;
70920;SDS011;58572;48.110;19.838;2023-05-29T02:39:56;5.18;;;2.38;;
70920;SDS011;58572;48.110;19.838;2023-05-29T02:42:23;5.18;;;2.75;;
70920;SDS011;58572;48.110;19.838;2023-05-29T02:44:50;4.70;;;2.25;;
70920;SDS011;58572;48.110;19.838;2023-05-29T02:47:17;6.18;;;2.58;;
70920;SDS011;58572;48.110;19.838;2023-05-29T02:49:45;5.40;;;2.20;;
70920;SDS011;58572;48.110;19.838;2023-05-29T02:52:12;7.40;;;3.30;;
70920;SDS011;58572;48.110;19.838;2023-05-29T02:54:41;5.82;;;2.47;;
70920;SDS011;58572;48.110;19.838;2023-05-29T02:57:08;5.28;;;2.42;;
70920;SDS011;58572;48.110;19.838;2023-05-29T02:59:37;6.63;;;2.90;;
70920;SDS011;58572;48.110;19.838;2023-05-29T03:02:07;7.78;;;2.60;;
70920;SDS011;58572;48.110;19.838;2023-05-29T03:04:34;5.18;;;2.60;;
70920;SDS011;58572;48.110;19.838;2023-05-29T03:07:01;7.22;;;2.50;;
70920;SDS011;58572;48.110;19.838;2023-05-29T03:09:30;5.47;;;2.55;;
70920;SDS011;58572;48.110;19.838;2023-05-29T03:11:58;6.47;;;3.00;;
70920;SDS011;58572;48.110;19.838;2023-05-29T03:14:26;5.85;;;3.30;;
70920;SDS011;58572;48.110;19.838;2023-05-29T03:16:53;5.32;;;2.25;;
70920;SDS011;58572;48.110;19.838;2023-05-29T03:19:21;5.32;;;2.50;;
70920;SDS011;58572;48.110;19.838;2023-05-29T03:21:48;5.30;;;2.55;;
70920;SDS011;58572;48.110;19.838;2023-05-29T03:24:15;6.93;;;2.88;;
70920;SDS011;58572;48.110;19.838;2023-05-29T03:26:43;6.82;;;2.78;;
70920;SDS011;58572;48.110;19.838;2023-05-29T03:29:11;7.32;;;3.30;;
70920;SDS011;58572;48.110;19.838;2023-05-29T03:31:39;5.97;;;2.70;;
70920;SDS011;58572;48.110;19.838;2023-05-29T03:34:06;5.55;;;2.63;;
70920;SDS011;58572;48.110;19.838;2023-05-29T03:36:33;5.15;;;2.53;;
70920;SDS011;58572;48.110;19.838;2023-05-29T03:39:01;6.25;;;2.63;;
70920;SDS011;58572;48.110;19.838;2023-05-29T03:41:29;5.88;;;2.83;;
70920;SDS011;58572;48.110;19.838;2023-05-29T03:43:56;4.90;;;2.28;;
70920;SDS011;58572;48.110;19.838;2023-05-29T03:46:25;7.72;;;2.60;;
70920;SDS011;58572;48.110;19.838;2023-05-29T03:48:52;9.23;;;3.33;;
70920;SDS011;58572;48.110;19.838;2023-05-29T03:51:19;9.25;;;2.67;;
70920;SDS011;58572;48.110;19.838;2023-05-29T03:53:46;5.05;;;2.60;;
70920;SDS011;58572;48.110;19.838;2023-05-29T03:56:13;5.55;;;2.78;;
70920;SDS011;58572;48.110;19.838;2023-05-29T03:58:40;5.30;;;3.13;;
70920;SDS011;58572;48.110;19.838;2023-05-29T04:01:07;8.77;;;2.85;;
70920;SDS011;58572;48.110;19.838;2023-05-29T04:03:36;4.45;;;2.45;;
70920;SDS011;58572;48.110;19.838;2023-05-29T04:06:04;7.70;;;2.88;;
70920;SDS011;58572;48.110;19.838;2023-05-29T04:08:32;7.10;;;3.53;;
70920;SDS011;58572;48.110;19.838;2023-05-29T04:10:59;7.50;;;2.40;;
70920;SDS011;58572;48.110;19.838;2023-05-29T04:13:26;5.45;;;2.75;;
70920;SDS011;58572;48.110;19.838;2023-05-29T04:15:54;5.85;;;2.35;;
70920;SDS011;58572;48.110;19.838;2023-05-29T04:18:21;5.50;;;2.78;;
70920;SDS011;58572;48.110;19.838;2023-05-29T04:20:50;6.18;;;2.40;;
70920;SDS011;58572;48.110;19.838;2023-05-29T04:23:18;7.68;;;2.85;;
70920;SDS011;58572;48.110;19.838;2023-05-29T04:25:45;8.25;;;2.67;;
70920;SDS011;58572;48.110;19.838;2023-05-29T04:28:16;6.82;;;2.38;;
70920;SDS011;58572;48.110;19.838;2023-05-29T04:30:46;6.00;;;2.63;;
70920;SDS011;58572;48.110;19.838;2023-05-29T04:33:13;8.18;;;2.90;;
70920;SDS011;58572;48.110;19.838;2023-05-29T04:35:40;7.43;;;2.83;;
70920;SDS011;58572;48.110;19.838;2023-05-29T04:38:10;4.75;;;2.10;;
70920;SDS011;58572;48.110;19.838;2023-05-29T04:40:38;7.15;;;2.92;;
70920;SDS011;58572;48.110;19.838;2023-05-29T04:45:33;4.68;;;2.22;;
70920;SDS011;58572;48.110;19.838;2023-05-29T04:48:02;5.53;;;3.22;;
70920;SDS011;58572;48.110;19.838;2023-05-29T04:50:29;5.85;;;2.35;;
70920;SDS011;58572;48.110;19.838;2023-05-29T04:52:56;6.93;;;2.60;;
70920;SDS011;58572;48.110;19.838;2023-05-29T04:55:25;8.00;;;3.35;;
70920;SDS011;58572;48.110;19.838;2023-05-29T04:57:52;6.38;;;3.10;;
70920;SDS011;58572;48.110;19.838;2023-05-29T05:00:20;6.68;;;3.30;;
70920;SDS011;58572;48.110;19.838;2023-05-29T05:02:48;5.28;;;2.47;;
70920;SDS011;58572;48.110;19.838;2023-05-29T05:05:16;6.18;;;2.63;;
70920;SDS011;58572;48.110;19.838;2023-05-29T05:07:43;6.88;;;2.47;;
70920;SDS011;58572;48.110;19.838;2023-05-29T05:10:10;6.20;;;2.70;;
70920;SDS011;58572;48.110;19.838;2023-05-29T05:12:39;9.05;;;2.40;;
70920;SDS011;58572;48.110;19.838;2023-05-29T05:15:07;6.13;;;2.60;;
70920;SDS011;58572;48.110;19.838;2023-05-29T05:17:35;5.28;;;2.42;;
70920;SDS011;58572;48.110;19.838;2023-05-29T05:20:02;6.20;;;2.50;;
70920;SDS011;58572;48.110;19.838;2023-05-29T05:22:31;5.88;;;2.65;;
70920;SDS011;58572;48.110;19.838;2023-05-29T05:24:58;6.20;;;2.47;;
70920;SDS011;58572;48.110;19.838;2023-05-29T05:29:54;5.75;;;2.78;;
70920;SDS011;58572;48.110;19.838;2023-05-29T05:32:21;6.55;;;2.60;;
70920;SDS011;58572;48.110;19.838;2023-05-29T05:34:48;5.40;;;2.92;;
70920;SDS011;58572;48.110;19.838;2023-05-29T05:37:15;7.35;;;2.83;;
70920;SDS011;58572;48.110;19.838;2023-05-29T05:39:42;14.68;;;6.90;;
70920;SDS011;58572;48.110;19.838;2023-05-29T05:42:09;8.43;;;3.42;;
70920;SDS011;58572;48.110;19.838;2023-05-29T05:44:36;4.53;;;2.42;;
70920;SDS011;58572;48.110;19.838;2023-05-29T05:47:05;7.82;;;2.72;;
70920;SDS011;58572;48.110;19.838;2023-05-29T05:49:33;5.68;;;2.42;;
70920;SDS011;58572;48.110;19.838;2023-05-29T05:52:00;4.57;;;2.58;;
70920;SDS011;58572;48.110;19.838;2023-05-29T05:54:27;8.48;;;2.42;;
70920;SDS011;58572;48.110;19.838;2023-05-29T05:56:54;5.25;;;3.22;;
70920;SDS011;58572;48.110;19.838;2023-05-29T05:59:21;7.63;;;2.75;;
70920;SDS011;58572;48.110;19.838;2023-05-29T06:01:48;6.75;;;2.78;;
70920;SDS011;58572;48.110;19.838;2023-05-29T06:04:17;7.18;;;2.70;;
70920;SDS011;58572;48.110;19.838;2023-05-29T06:06:45;6.72;;;3.35;;
70920;SDS011;58572;48.110;19.838;2023-05-29T06:09:12;5.55;;;2.75;;
70920;SDS011;58572;48.110;19.838;2023-05-29T06:11:39;6.35;;;2.78;;
70920;SDS011;58572;48.110;19.838;2023-05-29T06:16:33;7.63;;;2.92;;
70920;SDS011;58572;48.110;19.838;2023-05-29T06:19:01;8.32;;;2.85;;
70920;SDS011;58572;48.110;19.838;2023-05-29T06:21:31;7.80;;;3.00;;
70920;SDS011;58572;48.110;19.838;2023-05-29T06:23:59;5.20;;;2.88;;
70920;SDS011;58572;48.110;19.838;2023-05-29T06:26:26;5.72;;;2.72;;
70920;SDS011;58572;48.110;19.838;2023-05-29T06:28:53;8.90;;;3.22;;
70920;SDS011;58572;48.110;19.838;2023-05-29T06:33:48;9.68;;;2.85;;
70920;SDS011;58572;48.110;19.838;2023-05-29T06:36:15;7.60;;;3.13;;
70920;SDS011;58572;48.110;19.838;2023-05-29T06:38:47;6.40;;;3.10;;
70920;SDS011;58572;48.110;19.838;2023-05-29T06:41:14;9.98;;;3.70;;
70920;SDS011;58572;48.110;19.838;2023-05-29T06:43:41;7.40;;;3.63;;
70920;SDS011;58572;48.110;19.838;2023-05-29T06:46:08;7.03;;;3.22;;
70920;SDS011;58572;48.110;19.838;2023-05-29T06:48:36;7.20;;;3.08;;
70920;SDS011;58572;48.110;19.838;2023-05-29T06:51:04;6.95;;;3.30;;
70920;SDS011;58572;48.110;19.838;2023-05-29T06:53:34;8.30;;;3.50;;
70920;SDS011;58572;48.110;19.838;2023-05-29T06:56:05;8.40;;;3.47;;
70920;SDS011;58572;48.110;19.838;2023-05-29T06:58:33;6.25;;;3.63;;
70920;SDS011;58572;48.110;19.838;2023-05-29T07:01:02;7.43;;;3.53;;
70920;SDS011;58572;48.110;19.838;2023-05-29T07:03:29;8.45;;;3.50;;
70920;SDS011;58572;48.110;19.838;2023-05-29T07:06:01;10.07;;;3.05;;
70920;SDS011;58572;48.110;19.838;2023-05-29T07:08:28;5.85;;;3.00;;
70920;SDS011;58572;48.110;19.838;2023-05-29T07:10:55;6.30;;;3.40;;
70920;SDS011;58572;48.110;19.838;2023-05-29T07:13:24;5.75;;;3.30;;
70920;SDS011;58572;48.110;19.838;2023-05-29T07:15:52;17.80;;;8.07;;
70920;SDS011;58572;48.110;19.838;2023-05-29T07:18:19;9.10;;;5.97;;
70920;SDS011;58572;48.110;19.838;2023-05-29T07:20:46;11.75;;;5.78;;
70920;SDS011;58572;48.110;19.838;2023-05-29T07:23:13;6.97;;;3.53;;
70920;SDS011;58572;48.110;19.838;2023-05-29T07:25:41;8.95;;;3.50;;
70920;SDS011;58572;48.110;19.838;2023-05-29T07:28:08;9.25;;;3.40;;
70920;SDS011;58572;48.110;19.838;2023-05-29T07:30:37;6.85;;;3.08;;
70920;SDS011;58572;48.110;19.838;2023-05-29T07:33:04;7.30;;;3.40;;
70920;SDS011;58572;48.110;19.838;2023-05-29T07:35:32;8.75;;;3.95;;
70920;SDS011;58572;48.110;19.838;2023-05-29T07:37:59;8.77;;;3.38;;
70920;SDS011;58572;48.110;19.838;2023-05-29T07:40:26;6.85;;;3.17;;
70920;SDS011;58572;48.110;19.838;2023-05-29T07:42:53;6.80;;;3.55;;
70920;SDS011;58572;48.110;19.838;2023-05-29T07:45:21;9.63;;;3.17;;
70920;SDS011;58572;48.110;19.838;2023-05-29T07:47:49;7.70;;;3.35;;
70920;SDS011;58572;48.110;19.838;2023-05-29T07:50:16;6.28;;;3.45;;
70920;SDS011;58572;48.110;19.838;2023-05-29T07:52:45;6.75;;;3.30;;
70920;SDS011;58572;48.110;19.838;2023-05-29T07:55:12;7.10;;;3.78;;
70920;SDS011;58572;48.110;19.838;2023-05-29T07:57:39;8.05;;;3.90;;
70920;SDS011;58572;48.110;19.838;2023-05-29T08:00:07;7.13;;;3.30;;
70920;SDS011;58572;48.110;19.838;2023-05-29T08:02:37;6.25;;;3.13;;
70920;SDS011;58572;48.110;19.838;2023-05-29T08:05:06;7.60;;;4.15;;
70920;SDS011;58572;48.110;19.838;2023-05-29T08:07:34;8.00;;;3.50;;
70920;SDS011;58572;48.110;19.838;2023-05-29T08:10:03;8.15;;;3.63;;
70920;SDS011;58572;48.110;19.838;2023-05-29T08:12:31;7.65;;;3.92;;
70920;SDS011;58572;48.110;19.838;2023-05-29T08:15:00;5.93;;;3.17;;
70920;SDS011;58572;48.110;19.838;2023-05-29T08:19:55;8.57;;;3.33;;
70920;SDS011;58572;48.110;19.838;2023-05-29T08:22:27;5.93;;;3.50;;
70920;SDS011;58572;48.110;19.838;2023-05-29T08:24:56;7.30;;;3.20;;
70920;SDS011;58572;48.110;19.838;2023-05-29T08:27:23;8.15;;;3.28;;
70920;SDS011;58572;48.110;19.838;2023-05-29T08:29:51;7.55;;;3.20;;
70920;SDS011;58572;48.110;19.838;2023-05-29T08:32:19;6.20;;;3.42;;
70920;SDS011;58572;48.110;19.838;2023-05-29T08:34:46;6.70;;;3.05;;
70920;SDS011;58572;48.110;19.838;2023-05-29T08:37:15;12.35;;;4.03;;
70920;SDS011;58572;48.110;19.838;2023-05-29T08:39:44;8.05;;;3.78;;
70920;SDS011;58572;48.110;19.838;2023-05-29T08:42:12;7.85;;;3.85;;
70920;SDS011;58572;48.110;19.838;2023-05-29T08:44:43;9.90;;;3.65;;
70920;SDS011;58572;48.110;19.838;2023-05-29T08:47:14;7.88;;;3.45;;
70920;SDS011;58572;48.110;19.838;2023-05-29T08:49:45;8.48;;;3.60;;
70920;SDS011;58572;48.110;19.838;2023-05-29T08:52:19;6.80;;;3.20;;
70920;SDS011;58572;48.110;19.838;2023-05-29T08:54:50;7.13;;;3.35;;
70920;SDS011;58572;48.110;19.838;2023-05-29T08:57:19;8.23;;;3.45;;
70920;SDS011;58572;48.110;19.838;2023-05-29T08:59:49;6.57;;;3.72;;
70920;SDS011;58572;48.110;19.838;2023-05-29T09:02:18;13.52;;;4.57;;
70920;SDS011;58572;48.110;19.838;2023-05-29T09:04:45;12.77;;;5.15;;
70920;SDS011;58572;48.110;19.838;2023-05-29T09:07:14;8.07;;;3.92;;
70920;SDS011;58572;48.110;19.838;2023-05-29T09:09:42;6.97;;;3.75;;
70920;SDS011;58572;48.110;19.838;2023-05-29T09:12:10;7.38;;;3.92;;
70920;SDS011;58572;48.110;19.838;2023-05-29T09:14:42;10.85;;;4.25;;
70920;SDS011;58572;48.110;19.838;2023-05-29T09:17:11;6.90;;;3.40;;
70920;SDS011;58572;48.110;19.838;2023-05-29T09:19:40;5.97;;;3.78;;
70920;SDS011;58572;48.110;19.838;2023-05-29T09:22:08;7.10;;;3.88;;
70920;SDS011;58572;48.110;19.838;2023-05-29T09:24:39;6.97;;;4.28;;
70920;SDS011;58572;48.110;19.838;2023-05-29T09:27:06;10.70;;;3.47;;
70920;SDS011;58572;48.110;19.838;2023-05-29T09:29:38;7.75;;;4.13;;
70920;SDS011;58572;48.110;19.838;2023-05-29T09:32:06;8.07;;;3.58;;
70920;SDS011;58572;48.110;19.838;2023-05-29T09:34:35;9.43;;;4.28;;
70920;SDS011;58572;48.110;19.838;2023-05-29T09:37:02;8.50;;;3.95;;
70920;SDS011;58572;48.110;19.838;2023-05-29T09:39:34;7.10;;;3.80;;
70920;SDS011;58572;48.110;19.838;2023-05-29T09:42:10;7.35;;;3.75;;
70920;SDS011;58572;48.110;19.838;2023-05-29T09:44:39;7.00;;;3.45;;
70920;SDS011;58572;48.110;19.838;2023-05-29T09:47:07;6.47;;;3.47;;
70920;SDS011;58572;48.110;19.838;2023-05-29T09:49:35;6.75;;;3.60;;
70920;SDS011;58572;48.110;19.838;2023-05-29T09:52:07;5.43;;;3.05;;
70920;SDS011;58572;48.110;19.838;2023-05-29T09:57:03;7.50;;;3.53;;
70920;SDS011;58572;48.110;19.838;2023-05-29T09:59:33;8.57;;;4.18;;
70920;SDS011;58572;48.110;19.838;2023-05-29T10:02:03;6.57;;;3.70;;
70920;SDS011;58572;48.110;19.838;2023-05-29T10:04:32;8.43;;;3.40;;
70920;SDS011;58572;48.110;19.838;2023-05-29T10:07:00;8.82;;;3.97;;
70920;SDS011;58572;48.110;19.838;2023-05-29T10:09:32;9.52;;;3.42;;
70920;SDS011;58572;48.110;19.838;2023-05-29T10:12:01;8.73;;;3.50;;
70920;SDS011;58572;48.110;19.838;2023-05-29T10:14:33;8.02;;;3.50;;
70920;SDS011;58572;48.110;19.838;2023-05-29T10:17:05;6.13;;;3.50;;
70920;SDS011;58572;48.110;19.838;2023-05-29T10:19:36;7.28;;;3.70;;
70920;SDS011;58572;48.110;19.838;2023-05-29T10:22:05;7.45;;;4.47;;
70920;SDS011;58572;48.110;19.838;2023-05-29T10:24:33;6.35;;;3.72;;
70920;SDS011;58572;48.110;19.838;2023-05-29T10:27:04;7.25;;;3.75;;
70920;SDS011;58572;48.110;19.838;2023-05-29T10:29:34;7.18;;;3.92;;
70920;SDS011;58572;48.110;19.838;2023-05-29T10:32:16;10.10;;;4.03;;
70920;SDS011;58572;48.110;19.838;2023-05-29T10:34:50;6.63;;;4.15;;
70920;SDS011;58572;48.110;19.838;2023-05-29T10:37:31;6.28;;;3.75;;
70920;SDS011;58572;48.110;19.838;2023-05-29T10:40:04;7.30;;;3.08;;
70920;SDS011;58572;48.110;19.838;2023-05-29T10:42:44;6.20;;;3.88;;
70920;SDS011;58572;48.110;19.838;2023-05-29T10:51:06;6.30;;;3.78;;
70920;SDS011;58572;48.110;19.838;2023-05-29T10:53:34;9.43;;;3.97;;
70920;SDS011;58572;48.110;19.838;2023-05-29T10:56:10;5.75;;;3.67;;
70920;SDS011;58572;48.110;19.838;2023-05-29T10:58:42;8.75;;;3.70;;
70920;SDS011;58572;48.110;19.838;2023-05-29T11:01:09;7.35;;;4.10;;
70920;SDS011;58572;48.110;19.838;2023-05-29T11:03:38;5.68;;;3.50;;
70920;SDS011;58572;48.110;19.838;2023-05-29T11:06:06;6.45;;;4.15;;
70920;SDS011;58572;48.110;19.838;2023-05-29T11:08:43;7.05;;;3.47;;
70920;SDS011;58572;48.110;19.838;2023-05-29T11:11:11;7.65;;;4.32;;
70920;SDS011;58572;48.110;19.838;2023-05-29T11:13:39;6.07;;;3.95;;
70920;SDS011;58572;48.110;19.838;2023-05-29T11:16:10;6.45;;;3.72;;
70920;SDS011;58572;48.110;19.838;2023-05-29T11:18:44;6.13;;;4.03;;
70920;SDS011;58572;48.110;19.838;2023-05-29T11:21:25;7.65;;;3.35;;
70920;SDS011;58572;48.110;19.838;2023-05-29T11:23:57;8.20;;;4.15;;
70920;SDS011;58572;48.110;19.838;2023-05-29T11:26:28;7.90;;;3.83;;
70920;SDS011;58572;48.110;19.838;2023-05-29T11:28:59;7.82;;;4.57;;
70920;SDS011;58572;48.110;19.838;2023-05-29T11:31:27;6.80;;;3.85;;
70920;SDS011;58572;48.110;19.838;2023-05-29T11:34:00;9.18;;;4.80;;
70920;SDS011;58572;48.110;19.838;2023-05-29T11:36:30;7.25;;;4.20;;
70920;SDS011;58572;48.110;19.838;2023-05-29T11:38:57;9.70;;;4.10;;
70920;SDS011;58572;48.110;19.838;2023-05-29T11:41:25;7.68;;;3.80;;
70920;SDS011;58572;48.110;19.838;2023-05-29T11:43:56;5.25;;;3.67;;
70920;SDS011;58572;48.110;19.838;2023-05-29T11:46:24;7.43;;;4.20;;
70920;SDS011;58572;48.110;19.838;2023-05-29T11:48:53;7.07;;;4.38;;
70920;SDS011;58572;48.110;19.838;2023-05-29T11:53:49;6.88;;;4.30;;
70920;SDS011;58572;48.110;19.838;2023-05-29T11:56:18;10.15;;;4.20;;
70920;SDS011;58572;48.110;19.838;2023-05-29T11:58:46;6.80;;;4.28;;
70920;SDS011;58572;48.110;19.838;2023-05-29T12:01:16;7.05;;;3.78;;
70920;SDS011;58572;48.110;19.838;2023-05-29T12:03:46;8.40;;;4.10;;
70920;SDS011;58572;48.110;19.838;2023-05-29T12:06:13;8.05;;;4.32;;
70920;SDS011;58572;48.110;19.838;2023-05-29T12:11:09;8.77;;;4.03;;
70920;SDS011;58572;48.110;19.838;2023-05-29T12:13:38;6.75;;;4.50;;
70920;SDS011;58572;48.110;19.838;2023-05-29T12:18:33;8.88;;;4.18;;
70920;SDS011;58572;48.110;19.838;2023-05-29T12:21:00;5.65;;;3.70;;
70920;SDS011;58572;48.110;19.838;2023-05-29T12:23:29;7.30;;;3.40;;
70920;SDS011;58572;48.110;19.838;2023-05-29T12:25:59;5.90;;;3.75;;
70920;SDS011;58572;48.110;19.838;2023-05-29T12:28:27;7.80;;;4.55;;
70920;SDS011;58572;48.110;19.838;2023-05-29T12:33:25;7.45;;;3.90;;
70920;SDS011;58572;48.110;19.838;2023-05-29T12:35:54;9.60;;;3.30;;
70920;SDS011;58572;48.110;19.838;2023-05-29T12:38:27;6.53;;;3.92;;
70920;SDS011;58572;48.110;19.838;2023-05-29T12:40:55;7.90;;;4.03;;
70920;SDS011;58572;48.110;19.838;2023-05-29T12:43:24;7.22;;;3.75;;
70920;SDS011;58572;48.110;19.838;2023-05-29T12:45:54;6.57;;;4.20;;
70920;SDS011;58572;48.110;19.838;2023-05-29T12:48:25;5.57;;;4.03;;
70920;SDS011;58572;48.110;19.838;2023-05-29T12:50:53;8.15;;;3.60;;
70920;SDS011;58572;48.110;19.838;2023-05-29T12:53:20;7.28;;;4.10;;
70920;SDS011;58572;48.110;19.838;2023-05-29T12:58:15;7.28;;;3.92;;
70920;SDS011;58572;48.110;19.838;2023-05-29T13:00:44;7.68;;;4.00;;
70920;SDS011;58572;48.110;19.838;2023-05-29T13:03:11;7.38;;;4.55;;
70920;SDS011;58572;48.110;19.838;2023-05-29T13:05:39;7.70;;;4.18;;
70920;SDS011;58572;48.110;19.838;2023-05-29T13:10:34;9.18;;;4.13;;
70920;SDS011;58572;48.110;19.838;2023-05-29T13:15:28;6.97;;;4.05;;
70920;SDS011;58572;48.110;19.838;2023-05-29T13:17:59;6.10;;;4.28;;
70920;SDS011;58572;48.110;19.838;2023-05-29T13:20:26;9.93;;;3.92;;
70920;SDS011;58572;48.110;19.838;2023-05-29T13:25:20;8.93;;;4.35;;
70920;SDS011;58572;48.110;19.838;2023-05-29T13:27:49;6.68;;;4.20;;
70920;SDS011;58572;48.110;19.838;2023-05-29T13:30:16;6.65;;;4.40;;
70920;SDS011;58572;48.110;19.838;2023-05-29T13:32:44;6.88;;;4.13;;
70920;SDS011;58572;48.110;19.838;2023-05-29T13:37:39;9.75;;;4.53;;
70920;SDS011;58572;48.110;19.838;2023-05-29T13:40:08;7.35;;;3.90;;
70920;SDS011;58572;48.110;19.838;2023-05-29T13:42:37;8.90;;;4.75;;
70920;SDS011;58572;48.110;19.838;2023-05-29T13:45:05;6.75;;;4.00;;
70920;SDS011;58572;48.110;19.838;2023-05-29T13:47:34;6.07;;;3.75;;
70920;SDS011;58572;48.110;19.838;2023-05-29T13:50:01;7.65;;;4.15;;
70920;SDS011;58572;48.110;19.838;2023-05-29T13:52:31;9.18;;;4.07;;
70920;SDS011;58572;48.110;19.838;2023-05-29T13:54:58;7.50;;;4.80;;
70920;SDS011;58572;48.110;19.838;2023-05-29T13:57:31;7.13;;;4.35;;
70920;SDS011;58572;48.110;19.838;2023-05-29T13:59:58;6.38;;;4.55;;
70920;SDS011;58572;48.110;19.838;2023-05-29T14:02:26;8.63;;;4.13;;
70920;SDS011;58572;48.110;19.838;2023-05-29T14:04:53;7.95;;;4.80;;
70920;SDS011;58572;48.110;19.838;2023-05-29T14:07:21;6.40;;;4.32;;
70920;SDS011;58572;48.110;19.838;2023-05-29T14:09:51;9.88;;;4.70;;
70920;SDS011;58572;48.110;19.838;2023-05-29T14:12:18;9.35;;;5.05;;
70920;SDS011;58572;48.110;19.838;2023-05-29T14:14:45;8.73;;;5.53;;
70920;SDS011;58572;48.110;19.838;2023-05-29T14:17:13;7.20;;;4.13;;
70920;SDS011;58572;48.110;19.838;2023-05-29T14:19:40;5.68;;;4.18;;
70920;SDS011;58572;48.110;19.838;2023-05-29T14:22:10;6.63;;;4.38;;
70920;SDS011;58572;48.110;19.838;2023-05-29T14:24:38;7.32;;;4.65;;
70920;SDS011;58572;48.110;19.838;2023-05-29T14:27:07;8.70;;;4.40;;
70920;SDS011;58572;48.110;19.838;2023-05-29T14:29:34;6.60;;;4.85;;
70920;SDS011;58572;48.110;19.838;2023-05-29T14:32:02;6.78;;;4.20;;
70920;SDS011;58572;48.110;19.838;2023-05-29T14:34:29;9.45;;;4.50;;
70920;SDS011;58572;48.110;19.838;2023-05-29T14:39:23;7.55;;;4.60;;
70920;SDS011;58572;48.110;19.838;2023-05-29T14:44:18;6.85;;;3.65;;
70920;SDS011;58572;48.110;19.838;2023-05-29T14:46:45;6.88;;;4.53;;
70920;SDS011;58572;48.110;19.838;2023-05-29T14:51:39;8.52;;;4.85;;
70920;SDS011;58572;48.110;19.838;2023-05-29T14:54:07;6.60;;;4.40;;
70920;SDS011;58572;48.110;19.838;2023-05-29T14:56:36;7.32;;;4.53;;
70920;SDS011;58572;48.110;19.838;2023-05-29T15:01:38;6.57;;;4.20;;
70920;SDS011;58572;48.110;19.838;2023-05-29T15:04:05;7.95;;;4.35;;
70920;SDS011;58572;48.110;19.838;2023-05-29T15:06:32;8.68;;;3.95;;
70920;SDS011;58572;48.110;19.838;2023-05-29T15:11:28;7.78;;;4.00;;
70920;SDS011;58572;48.110;19.838;2023-05-29T15:13:55;8.45;;;4.43;;
70920;SDS011;58572;48.110;19.838;2023-05-29T15:18:50;7.53;;;4.65;;
70920;SDS011;58572;48.110;19.838;2023-05-29T15:21:18;5.43;;;4.20;;
70920;SDS011;58572;48.110;19.838;2023-05-29T15:23:45;7.20;;;3.55;;
70920;SDS011;58572;48.110;19.838;2023-05-29T15:26:12;7.93;;;4.53;;
70920;SDS011;58572;48.110;19.838;2023-05-29T15:31:06;7.28;;;4.10;;
70920;SDS011;58572;48.110;19.838;2023-05-29T15:33:33;8.30;;;4.13;;
70920;SDS011;58572;48.110;19.838;2023-05-29T15:38:29;8.13;;;4.38;;
70920;SDS011;58572;48.110;19.838;2023-05-29T15:40:57;7.78;;;4.20;;
70920;SDS011;58572;48.110;19.838;2023-05-29T15:43:26;8.15;;;4.60;;
70920;SDS011;58572;48.110;19.838;2023-05-29T15:45:53;7.10;;;4.00;;